createdAt,value
2023-05-14T00:02:22.110Z,15.97
2023-05-14T00:04:49.961Z,21.27
2023-05-14T00:07:17.809Z,16.13
2023-05-14T00:09:45.518Z,17.60
2023-05-14T00:12:13.188Z,18.23
2023-05-14T00:14:40.821Z,17.10
2023-05-14T00:17:08.550Z,23.50
2023-05-14T00:19:37.628Z,21.47
2023-05-14T00:22:05.577Z,20.43
2023-05-14T00:24:33.288Z,22.60
2023-05-14T00:27:00.986Z,17.80
2023-05-14T00:29:28.653Z,22.37
2023-05-14T00:31:56.351Z,17.40
2023-05-14T00:34:24.268Z,19.37
2023-05-14T00:36:53.668Z,23.17
2023-05-14T00:39:21.348Z,20.17
2023-05-14T00:41:49.020Z,23.80
2023-05-14T00:44:16.735Z,19.03
2023-05-14T00:46:44.677Z,25.37
2023-05-14T00:49:12.427Z,22.53
2023-05-14T00:51:41.452Z,21.67
2023-05-14T00:54:10.951Z,25.20
2023-05-14T00:56:38.609Z,20.70
2023-05-14T00:59:06.445Z,25.40
2023-05-14T01:01:34.277Z,22.07
2023-05-14T01:04:02.384Z,23.50
2023-05-14T01:06:33.533Z,22.60
2023-05-14T01:09:09.096Z,17.63
2023-05-14T01:11:43.819Z,19.63
2023-05-14T01:14:17.340Z,23.40
2023-05-14T01:16:46.792Z,18.73
2023-05-14T01:19:22.883Z,20.47
2023-05-14T01:21:51.920Z,24.87
2023-05-14T01:24:20.098Z,25.97
2023-05-14T01:26:47.811Z,20.13
2023-05-14T01:29:21.491Z,22.20
2023-05-14T01:31:51.161Z,20.57
2023-05-14T01:34:21.373Z,23.50
2023-05-14T01:36:49.747Z,23.13
2023-05-14T01:39:18.909Z,23.77
2023-05-14T01:41:47.146Z,22.13
2023-05-14T01:44:15.172Z,20.03
2023-05-14T01:46:42.942Z,23.27
2023-05-14T01:49:10.640Z,25.13
2023-05-14T01:51:38.320Z,24.23
2023-05-14T01:54:06.202Z,20.67
2023-05-14T01:56:35.357Z,18.47
2023-05-14T01:59:03.109Z,24.27
2023-05-14T02:01:30.902Z,22.43
2023-05-14T02:03:58.702Z,22.23
2023-05-14T02:06:26.428Z,22.03
2023-05-14T02:08:54.211Z,20.80
2023-05-14T02:11:22.019Z,22.03
2023-05-14T02:13:51.095Z,23.40
2023-05-14T02:16:19.308Z,29.73
2023-05-14T02:18:47.105Z,22.37
2023-05-14T02:21:14.816Z,22.73
2023-05-14T02:23:43.025Z,23.60
2023-05-14T02:26:11.030Z,22.27
2023-05-14T02:28:38.823Z,18.67
2023-05-14T02:31:07.992Z,28.53
2023-05-14T02:33:36.011Z,25.77
2023-05-14T02:36:03.860Z,21.73
2023-05-14T02:38:31.577Z,22.80
2023-05-14T02:40:59.658Z,24.57
2023-05-14T02:43:27.332Z,35.03
2023-05-14T02:45:55.041Z,28.87
2023-05-14T02:48:24.197Z,24.53
2023-05-14T02:50:52.208Z,23.37
2023-05-14T02:53:19.934Z,31.10
2023-05-14T02:55:47.574Z,26.70
2023-05-14T02:58:15.915Z,24.93
2023-05-14T03:00:43.606Z,28.13
2023-05-14T03:03:11.776Z,23.13
2023-05-14T03:05:41.392Z,27.10
2023-05-14T03:08:09.054Z,25.37
2023-05-14T03:10:37.053Z,26.23
2023-05-14T03:13:04.848Z,27.37
2023-05-14T03:15:32.492Z,24.57
2023-05-14T03:18:00.200Z,26.80
2023-05-14T03:20:28.161Z,25.30
2023-05-14T03:22:57.230Z,26.93
2023-05-14T03:25:24.884Z,31.30
2023-05-14T03:27:52.719Z,32.07
2023-05-14T03:30:20.536Z,30.50
2023-05-14T03:32:49.225Z,24.30
2023-05-14T03:35:17.071Z,29.90
2023-05-14T03:37:44.925Z,25.77
2023-05-14T03:40:14.149Z,30.87
2023-05-14T03:42:41.793Z,25.87
2023-05-14T03:45:10.779Z,26.97
2023-05-14T03:47:38.573Z,23.03
2023-05-14T03:50:07.677Z,29.83
2023-05-14T03:52:35.443Z,26.63
2023-05-14T03:55:03.119Z,28.33
2023-05-14T03:57:32.202Z,24.73
2023-05-14T03:59:59.841Z,23.67
2023-05-14T04:02:27.611Z,30.30
2023-05-14T04:04:55.437Z,29.10
2023-05-14T04:07:23.590Z,26.10
2023-05-14T04:09:52.126Z,26.33
2023-05-14T04:12:19.899Z,24.73
2023-05-14T04:14:48.989Z,28.13
2023-05-14T04:17:16.656Z,28.53
2023-05-14T04:19:44.368Z,28.07
2023-05-14T04:22:12.148Z,33.40
2023-05-14T04:24:39.866Z,29.93
2023-05-14T04:27:07.596Z,28.77
2023-05-14T04:29:35.283Z,24.20
2023-05-14T04:32:04.883Z,27.07
2023-05-14T04:34:32.687Z,24.53
2023-05-14T04:37:00.368Z,30.67
2023-05-14T04:39:28.057Z,33.23
2023-05-14T04:41:55.768Z,19.20
2023-05-14T04:44:23.461Z,23.40
2023-05-14T04:46:51.203Z,21.73
2023-05-14T04:49:20.836Z,21.50
2023-05-14T04:51:48.657Z,21.67
2023-05-14T04:54:16.392Z,25.83
2023-05-14T04:56:44.116Z,19.10
2023-05-14T04:59:11.840Z,27.20
2023-05-14T05:01:39.621Z,22.60
2023-05-14T05:04:07.458Z,20.37
2023-05-14T05:06:36.520Z,22.30
2023-05-14T05:09:04.519Z,24.50
2023-05-14T05:11:32.194Z,17.47
2023-05-14T05:14:00.288Z,25.47
2023-05-14T05:16:28.005Z,15.97
2023-05-14T05:18:55.845Z,19.43
2023-05-14T05:21:23.579Z,17.73
2023-05-14T05:23:52.611Z,17.33
2023-05-14T05:26:22.274Z,16.63
2023-05-14T05:28:49.990Z,17.00
2023-05-14T05:31:19.653Z,17.50
2023-05-14T05:33:47.724Z,14.93
2023-05-14T05:36:15.427Z,12.63
2023-05-14T05:38:43.192Z,12.97
2023-05-14T05:41:12.237Z,16.80
2023-05-14T05:43:39.959Z,15.73
2023-05-14T05:46:08.121Z,14.67
2023-05-14T05:48:35.839Z,16.43
2023-05-14T05:51:03.492Z,16.30
2023-05-14T05:53:31.213Z,17.23
2023-05-14T05:55:58.910Z,15.63
2023-05-14T05:58:27.987Z,19.00
2023-05-14T06:00:57.604Z,14.47
2023-05-14T06:03:25.307Z,14.93
2023-05-14T06:05:53.637Z,16.23
2023-05-14T06:08:21.727Z,16.50
2023-05-14T06:10:49.374Z,14.23
2023-05-14T06:13:17.069Z,12.57
2023-05-14T06:15:46.089Z,16.40
2023-05-14T06:18:13.805Z,15.67
2023-05-14T06:20:41.687Z,17.10
2023-05-14T06:23:12.237Z,15.77
2023-05-14T06:25:39.971Z,18.27
2023-05-14T06:28:07.623Z,17.60
2023-05-14T06:30:35.318Z,17.60
2023-05-14T06:33:04.649Z,14.97
2023-05-14T06:35:32.430Z,16.50
2023-05-14T06:38:00.134Z,13.13
2023-05-14T06:40:27.895Z,15.20
2023-05-14T06:42:55.568Z,16.07
2023-05-14T06:45:23.619Z,18.37
2023-05-14T06:47:51.382Z,15.67
2023-05-14T06:50:20.579Z,13.20
2023-05-14T06:52:48.403Z,17.60
2023-05-14T06:55:16.119Z,15.90
2023-05-14T06:57:44.638Z,15.27
2023-05-14T07:00:14.353Z,16.83
2023-05-14T07:02:42.086Z,13.00
2023-05-14T07:05:10.346Z,14.97
2023-05-14T07:07:39.880Z,15.97
2023-05-14T07:10:09.193Z,14.40
2023-05-14T07:12:37.266Z,16.97
2023-05-14T07:15:05.673Z,16.37
2023-05-14T07:17:33.343Z,14.40
2023-05-14T07:20:01.005Z,12.60
2023-05-14T07:22:28.627Z,15.73
2023-05-14T07:24:57.676Z,18.77
2023-05-14T07:27:25.340Z,13.60
2023-05-14T07:29:53.037Z,17.87
2023-05-14T07:32:20.719Z,16.10
2023-05-14T07:34:48.800Z,14.67
2023-05-14T07:37:16.705Z,15.00
2023-05-14T07:39:44.437Z,17.83
2023-05-14T07:42:21.790Z,14.83
2023-05-14T07:44:52.632Z,13.17
2023-05-14T07:47:20.393Z,12.23
2023-05-14T07:49:48.114Z,15.80
2023-05-14T07:52:15.860Z,15.77
2023-05-14T07:54:43.546Z,15.93
2023-05-14T07:57:11.260Z,15.27
2023-05-14T07:59:40.463Z,15.87
2023-05-14T08:02:10.125Z,20.47
2023-05-14T08:04:37.985Z,13.37
2023-05-14T08:07:07.272Z,17.87
2023-05-14T08:09:35.157Z,15.43
2023-05-14T08:12:02.900Z,16.27
2023-05-14T08:14:30.628Z,14.47
2023-05-14T08:17:00.068Z,13.70
2023-05-14T08:19:27.841Z,17.13
2023-05-14T08:21:55.550Z,16.47
2023-05-14T08:24:23.222Z,14.03
2023-05-14T08:26:50.908Z,12.77
2023-05-14T08:29:18.761Z,14.77
2023-05-14T08:31:46.511Z,14.43
2023-05-14T08:34:15.689Z,23.90
2023-05-14T08:36:43.567Z,19.00
2023-05-14T08:39:11.231Z,15.03
2023-05-14T08:41:38.893Z,13.27
2023-05-14T08:44:09.259Z,15.00
2023-05-14T08:46:37.887Z,16.53
2023-05-14T08:49:11.276Z,17.87
2023-05-14T08:51:41.083Z,14.67
2023-05-14T08:54:08.758Z,15.93
2023-05-14T08:56:36.942Z,21.80
2023-05-14T08:59:04.986Z,16.27
2023-05-14T09:01:32.785Z,12.63
2023-05-14T09:04:01.555Z,16.67
2023-05-14T09:06:29.578Z,13.43
2023-05-14T09:08:58.687Z,13.23
2023-05-14T09:11:26.393Z,14.77
2023-05-14T09:13:54.110Z,15.03
2023-05-14T09:16:22.149Z,12.80
2023-05-14T09:18:49.936Z,13.50
2023-05-14T09:21:18.939Z,11.50
2023-05-14T09:23:47.766Z,9.47
2023-05-14T09:26:18.162Z,13.27
2023-05-14T09:28:45.896Z,11.37
2023-05-14T09:31:13.696Z,10.13
2023-05-14T09:33:41.431Z,9.00
2023-05-14T09:36:09.479Z,11.97
2023-05-14T09:38:37.103Z,9.83
2023-05-14T09:41:04.998Z,8.13
2023-05-14T09:43:34.056Z,8.43
2023-05-14T09:46:01.750Z,11.40
2023-05-14T09:48:29.715Z,8.73
2023-05-14T09:50:57.623Z,12.73
2023-05-14T09:53:26.066Z,9.70
2023-05-14T09:55:53.782Z,10.87
2023-05-14T09:58:21.492Z,8.53
2023-05-14T10:00:51.297Z,9.23
2023-05-14T10:03:20.190Z,7.80
2023-05-14T10:05:51.105Z,8.90
2023-05-14T10:08:23.108Z,15.93
2023-05-14T10:10:52.442Z,13.20
2023-05-14T10:13:22.183Z,8.27
2023-05-14T10:15:54.954Z,12.33
2023-05-14T10:18:24.937Z,8.77
2023-05-14T10:20:58.384Z,11.37
2023-05-14T10:23:26.365Z,10.33
2023-05-14T10:25:54.214Z,9.73
2023-05-14T10:28:21.968Z,10.00
2023-05-14T10:30:51.096Z,10.37
2023-05-14T10:33:19.069Z,11.73
2023-05-14T10:35:56.306Z,9.67
2023-05-14T10:38:27.081Z,8.50
2023-05-14T10:41:00.138Z,9.23
2023-05-14T10:43:29.397Z,9.30
2023-05-14T10:45:59.401Z,8.07
2023-05-14T10:48:27.334Z,11.47
2023-05-14T10:50:55.613Z,6.53
2023-05-14T10:53:33.047Z,8.03
2023-05-14T10:56:05.310Z,7.47
2023-05-14T10:58:34.696Z,9.40
2023-05-14T11:01:04.787Z,9.67
2023-05-14T11:03:32.620Z,9.77
2023-05-14T11:06:02.497Z,15.60
2023-05-14T11:08:30.439Z,13.77
2023-05-14T11:10:58.517Z,6.83
2023-05-14T11:13:27.320Z,6.03
2023-05-14T11:15:55.208Z,6.93
2023-05-14T11:18:31.681Z,7.83
2023-05-14T11:21:00.279Z,6.43
2023-05-14T11:23:28.671Z,7.20
2023-05-14T11:25:57.751Z,17.13
2023-05-14T11:28:27.209Z,9.37
2023-05-14T11:30:55.485Z,9.43
2023-05-14T11:33:23.279Z,8.30
2023-05-14T11:35:52.350Z,9.33
2023-05-14T11:38:23.111Z,8.50
2023-05-14T11:40:54.565Z,6.33
2023-05-14T11:43:23.738Z,10.73
2023-05-14T11:45:52.556Z,6.83
2023-05-14T11:48:20.821Z,5.73
2023-05-14T11:50:50.044Z,5.13
2023-05-14T11:53:20.354Z,7.53
2023-05-14T11:55:54.777Z,5.83
2023-05-14T11:58:24.720Z,9.33
2023-05-14T12:00:57.382Z,9.37
2023-05-14T12:03:29.584Z,8.67
2023-05-14T12:06:00.666Z,5.40
2023-05-14T12:08:31.264Z,10.50
2023-05-14T12:11:00.467Z,11.10
2023-05-14T12:13:28.784Z,4.83
2023-05-14T12:15:58.004Z,7.87
2023-05-14T12:18:26.694Z,6.97
2023-05-14T12:20:54.701Z,7.07
2023-05-14T12:23:26.825Z,7.23
2023-05-14T12:25:56.421Z,5.37
2023-05-14T12:28:24.995Z,7.40
2023-05-14T12:30:57.642Z,5.10
2023-05-14T12:33:26.507Z,7.13
2023-05-14T12:35:58.957Z,5.77
2023-05-14T12:38:28.369Z,13.10
2023-05-14T12:40:57.401Z,6.30
2023-05-14T12:43:25.080Z,4.83
2023-05-14T12:45:52.780Z,5.33
2023-05-14T12:48:20.552Z,3.97
2023-05-14T12:50:48.755Z,5.03
2023-05-14T12:53:16.822Z,3.50
2023-05-14T12:55:44.514Z,5.13
2023-05-14T12:58:13.705Z,5.60
2023-05-14T13:00:41.407Z,7.57
2023-05-14T13:03:09.149Z,9.80
2023-05-14T13:05:36.886Z,13.57
2023-05-14T13:08:04.595Z,9.10
2023-05-14T13:10:32.366Z,4.50
2023-05-14T13:13:00.113Z,10.37
2023-05-14T13:15:31.556Z,8.23
2023-05-14T13:17:59.347Z,8.83
2023-05-14T13:20:27.572Z,3.67
2023-05-14T13:22:55.356Z,9.20
2023-05-14T13:25:23.289Z,7.13
2023-05-14T13:27:51.709Z,6.00
2023-05-14T13:30:19.613Z,8.80
2023-05-14T13:32:48.840Z,7.53
2023-05-14T13:35:16.622Z,5.77
2023-05-14T13:37:44.766Z,4.33
2023-05-14T13:40:13.342Z,10.60
2023-05-14T13:42:41.099Z,5.00
2023-05-14T13:45:09.819Z,7.43
2023-05-14T13:47:37.575Z,7.90
2023-05-14T13:50:07.816Z,4.83
2023-05-14T13:52:35.537Z,6.37
2023-05-14T13:55:03.177Z,4.70
2023-05-14T13:57:30.821Z,5.23
2023-05-14T13:59:58.556Z,5.00
2023-05-14T14:02:26.303Z,7.63
2023-05-14T14:04:54.434Z,5.20
2023-05-14T14:07:23.531Z,3.87
2023-05-14T14:09:51.482Z,7.33
2023-05-14T14:12:19.185Z,6.43
2023-05-14T14:14:46.942Z,3.80
2023-05-14T14:17:14.640Z,6.57
2023-05-14T14:19:42.451Z,5.90
2023-05-14T14:22:10.306Z,8.80
2023-05-14T14:24:39.452Z,7.50
2023-05-14T14:27:07.185Z,8.10
2023-05-14T14:29:35.466Z,7.40
2023-05-14T14:32:03.188Z,4.83
2023-05-14T14:34:31.014Z,4.97
2023-05-14T14:36:58.699Z,3.57
2023-05-14T14:39:26.534Z,6.57
2023-05-14T14:41:56.106Z,4.23
2023-05-14T14:44:23.818Z,4.70
2023-05-14T14:46:51.588Z,12.03
2023-05-14T14:49:19.228Z,4.33
2023-05-14T14:51:46.937Z,3.53
2023-05-14T14:54:14.600Z,6.67
2023-05-14T14:56:43.350Z,7.87
2023-05-14T14:59:12.422Z,3.77
2023-05-14T15:01:40.181Z,5.23
2023-05-14T15:04:08.010Z,6.87
2023-05-14T15:06:35.647Z,5.97
2023-05-14T15:09:03.611Z,4.07
2023-05-14T15:11:31.318Z,9.03
2023-05-14T15:13:58.981Z,3.40
2023-05-14T15:16:29.187Z,5.23
2023-05-14T15:18:56.925Z,7.17
2023-05-14T15:21:24.638Z,5.20
2023-05-14T15:23:52.352Z,5.33
2023-05-14T15:26:20.230Z,10.37
2023-05-14T15:28:47.995Z,4.70
2023-05-14T15:31:15.746Z,6.60
2023-05-14T15:33:44.834Z,4.73
2023-05-14T15:36:12.841Z,4.37
2023-05-14T15:38:40.601Z,6.53
2023-05-14T15:41:08.599Z,6.57
2023-05-14T15:43:36.573Z,7.03
2023-05-14T15:46:04.267Z,4.87
2023-05-14T15:48:32.001Z,5.83
2023-05-14T15:51:01.034Z,8.60
2023-05-14T15:53:28.882Z,8.13
2023-05-14T15:55:56.589Z,7.50
2023-05-14T15:58:24.243Z,6.80
2023-05-14T16:00:51.904Z,7.67
2023-05-14T16:03:19.730Z,8.63
2023-05-14T16:05:48.553Z,6.80
2023-05-14T16:08:17.656Z,3.27
2023-05-14T16:10:45.374Z,4.60
2023-05-14T16:13:13.096Z,5.63
2023-05-14T16:15:40.770Z,4.03
2023-05-14T16:18:08.617Z,5.93
2023-05-14T16:20:36.283Z,5.57
2023-05-14T16:23:04.024Z,5.47
2023-05-14T16:25:33.115Z,6.90
2023-05-14T16:28:01.500Z,3.60
2023-05-14T16:30:29.244Z,3.43
2023-05-14T16:32:57.054Z,6.03
2023-05-14T16:35:24.793Z,3.43
2023-05-14T16:37:52.448Z,7.20
2023-05-14T16:40:20.260Z,8.93
2023-05-14T16:42:49.764Z,7.63
2023-05-14T16:45:17.432Z,8.30
2023-05-14T16:47:45.368Z,4.53
2023-05-14T16:50:13.118Z,5.70
2023-05-14T16:52:40.797Z,5.73
2023-05-14T16:55:09.344Z,6.90
2023-05-14T16:57:37.087Z,6.33
2023-05-14T17:00:07.818Z,7.53
2023-05-14T17:02:35.580Z,6.20
2023-05-14T17:05:03.978Z,4.30
2023-05-14T17:07:32.178Z,5.30
2023-05-14T17:10:00.783Z,5.20
2023-05-14T17:12:28.538Z,4.20
2023-05-14T17:14:56.246Z,7.23
2023-05-14T17:17:25.415Z,4.77
2023-05-14T17:19:53.152Z,4.43
2023-05-14T17:22:21.211Z,6.30
2023-05-14T17:24:48.875Z,6.77
2023-05-14T17:27:16.843Z,3.67
2023-05-14T17:29:44.596Z,8.00
2023-05-14T17:32:12.702Z,8.00
2023-05-14T17:34:41.775Z,8.10
2023-05-14T17:37:09.561Z,8.77
2023-05-14T17:39:37.398Z,4.40
2023-05-14T17:42:06.342Z,6.57
2023-05-14T17:44:34.038Z,5.93
2023-05-14T17:47:03.097Z,6.83
2023-05-14T17:49:30.846Z,6.50
2023-05-14T17:51:59.830Z,8.07
2023-05-14T17:54:27.835Z,5.27
2023-05-14T17:56:55.659Z,6.07
2023-05-14T17:59:24.368Z,6.17
2023-05-14T18:01:52.233Z,6.53
2023-05-14T18:04:19.957Z,8.27
2023-05-14T18:06:47.704Z,8.60
2023-05-14T18:09:16.857Z,7.83
2023-05-14T18:11:45.296Z,9.50
2023-05-14T18:14:13.084Z,9.63
2023-05-14T18:16:41.250Z,8.57
2023-05-14T18:19:09.047Z,9.63
2023-05-14T18:21:36.944Z,7.03
2023-05-14T18:24:04.987Z,5.90
2023-05-14T18:26:35.012Z,6.47
2023-05-14T18:29:02.711Z,7.23
2023-05-14T18:31:30.572Z,4.63
2023-05-14T18:33:58.391Z,5.60
2023-05-14T18:36:26.132Z,6.50
2023-05-14T18:38:53.830Z,4.50
2023-05-14T18:41:21.519Z,3.50
2023-05-14T18:43:50.616Z,8.40
2023-05-14T18:46:18.358Z,6.87
2023-05-14T18:48:46.028Z,5.43
2023-05-14T18:51:13.916Z,8.17
2023-05-14T18:53:41.639Z,12.37
2023-05-14T18:56:09.586Z,5.20
2023-05-14T18:58:37.394Z,10.17
2023-05-14T19:01:06.433Z,6.80
2023-05-14T19:03:34.299Z,8.60
2023-05-14T19:06:02.046Z,9.47
2023-05-14T19:08:29.732Z,7.87
2023-05-14T19:10:57.370Z,5.83
2023-05-14T19:13:25.514Z,7.73
2023-05-14T19:15:53.290Z,10.47
2023-05-14T19:18:22.390Z,5.07
2023-05-14T19:20:50.122Z,6.50
2023-05-14T19:23:17.848Z,4.60
2023-05-14T19:25:45.913Z,5.10
2023-05-14T19:28:13.617Z,7.73
2023-05-14T19:30:41.292Z,6.17
2023-05-14T19:33:09.038Z,8.03
2023-05-14T19:35:38.250Z,5.17
2023-05-14T19:38:05.970Z,6.37
2023-05-14T19:40:33.646Z,6.80
2023-05-14T19:43:01.367Z,6.17
2023-05-14T19:45:29.439Z,7.43
2023-05-14T19:47:57.429Z,7.70
2023-05-14T19:50:25.198Z,9.53
2023-05-14T19:52:54.263Z,10.17
2023-05-14T19:55:21.947Z,16.57
2023-05-14T19:57:49.661Z,9.03
2023-05-14T20:00:17.810Z,10.13
2023-05-14T20:02:45.567Z,18.90
2023-05-14T20:05:13.930Z,18.90
2023-05-14T20:07:42.120Z,18.10
2023-05-14T20:10:11.809Z,19.43
2023-05-14T20:12:39.637Z,21.83
2023-05-14T20:15:08.104Z,28.80
2023-05-14T20:17:35.791Z,28.10
2023-05-14T20:20:04.900Z,26.60
2023-05-14T20:22:32.631Z,25.53
2023-05-14T20:25:00.287Z,22.37
2023-05-14T20:27:29.383Z,28.73
2023-05-14T20:29:57.070Z,26.23
2023-05-14T20:32:25.434Z,29.20
2023-05-14T20:34:53.095Z,24.17
2023-05-14T20:37:21.563Z,25.10
2023-05-14T20:39:49.264Z,25.67
2023-05-14T20:42:16.914Z,25.37
2023-05-14T20:44:48.221Z,23.60
2023-05-14T20:47:20.092Z,23.53
2023-05-14T20:49:48.284Z,21.87
2023-05-14T20:52:16.545Z,24.10
2023-05-14T20:54:44.451Z,25.03
2023-05-14T20:57:12.937Z,24.93
2023-05-14T20:59:40.633Z,21.47
2023-05-14T21:02:09.909Z,23.80
2023-05-14T21:04:37.860Z,27.60
2023-05-14T21:07:06.340Z,23.73
2023-05-14T21:09:34.183Z,26.63
2023-05-14T21:12:01.922Z,22.40
2023-05-14T21:14:29.583Z,31.23
2023-05-14T21:16:57.326Z,24.43
2023-05-14T21:19:26.331Z,23.13
2023-05-14T21:21:54.059Z,24.23
2023-05-14T21:24:21.764Z,22.23
2023-05-14T21:26:49.997Z,23.67
2023-05-14T21:29:18.775Z,21.77
2023-05-14T21:31:46.529Z,24.57
2023-05-14T21:34:14.273Z,27.30
2023-05-14T21:36:43.374Z,24.80
2023-05-14T21:39:11.060Z,28.97
2023-05-14T21:41:38.835Z,25.23
2023-05-14T21:44:06.731Z,23.83
2023-05-14T21:46:34.422Z,24.50
2023-05-14T21:49:02.199Z,27.43
2023-05-14T21:51:29.972Z,25.93
2023-05-14T21:53:59.059Z,26.43
2023-05-14T21:56:27.287Z,25.00
2023-05-14T21:58:56.116Z,31.97
2023-05-14T22:01:24.579Z,26.83
2023-05-14T22:03:52.387Z,26.73
2023-05-14T22:06:20.113Z,22.73
2023-05-14T22:08:47.830Z,28.50
2023-05-14T22:11:16.897Z,32.63
2023-05-14T22:13:44.530Z,31.80
2023-05-14T22:16:14.017Z,34.53
2023-05-14T22:18:42.580Z,33.30
2023-05-14T22:21:10.254Z,33.63
2023-05-14T22:23:37.960Z,30.47
2023-05-14T22:26:05.988Z,31.13
2023-05-14T22:28:35.107Z,33.07
2023-05-14T22:31:04.214Z,34.00
2023-05-14T22:33:33.118Z,33.43
2023-05-14T22:36:00.794Z,34.00
2023-05-14T22:38:28.487Z,36.03
2023-05-14T22:40:56.127Z,33.83
2023-05-14T22:43:23.912Z,33.23
2023-05-14T22:45:52.988Z,34.53
2023-05-14T22:48:20.641Z,37.23
2023-05-14T22:50:48.290Z,33.63
2023-05-14T22:53:16.216Z,40.03
2023-05-14T22:55:43.897Z,39.47
2023-05-14T22:58:11.774Z,37.70
2023-05-14T23:00:39.515Z,39.67
2023-05-14T23:03:08.704Z,45.43
2023-05-14T23:05:36.499Z,40.80
2023-05-14T23:08:04.419Z,40.83
2023-05-14T23:10:32.084Z,41.70
2023-05-14T23:12:59.746Z,42.20
2023-05-14T23:15:27.729Z,42.33
2023-05-14T23:17:55.539Z,47.30
2023-05-14T23:20:24.986Z,43.80
2023-05-14T23:22:54.070Z,43.50
2023-05-14T23:25:21.979Z,45.97
2023-05-14T23:27:50.067Z,49.50
2023-05-14T23:30:17.961Z,53.47
2023-05-14T23:32:45.782Z,50.03
2023-05-14T23:35:13.521Z,53.30
2023-05-14T23:37:47.234Z,50.37
2023-05-14T23:40:15.700Z,47.87
2023-05-14T23:42:43.906Z,50.43
2023-05-14T23:45:12.805Z,52.77
2023-05-14T23:47:41.438Z,52.27
2023-05-14T23:50:09.492Z,58.03
2023-05-14T23:52:37.171Z,52.30
2023-05-14T23:55:07.232Z,54.80
2023-05-14T23:57:35.062Z,56.77
